Johannesburg, MI

3:34 AM EDT on August 30, 2015 (GMT -0400)
Lake Louise | | Change Station
CLOSE
Current Station
Personal Weather Station
Location: Johannesburg, MI
Elevation: 1358 ft
Nearby Weather Stations

Elev 1358 ft 44.98 °N, 84.49 °W | Updated 2 minutes ago

Clear
Clear
56.7 °F
Feels Like 56.7 °F
N
0.0
Wind Variable Wind from SSE

Today
High -- | Low -- °F
--% Chance of Precip.
Yesterday
High -- | Low -- °F
Precip. -- in
6:57 AM 8:18 PM
Full, 100% visible
Pressure 30.06 in
Visibility 6.0 miles
Clouds Few 400 ft
Dew Point 56 °F
Humidity 99%
Rainfall 0.00 in
Snow Depth Not available.
UV 0 out of 12
Pollen 9.00 out of 12
Air Quality Not available.
Flu Activity Not available.
SPECI KGLR 300712Z AUTO 00000KT 6SM BR FEW004 12/12 A3006 RMK AO2 T01220117
Pressure 30.06 in
Visibility 6.0 miles
Clouds Few 400 ft
Dew Point 56 °F
Humidity 99%
Rainfall 0.00 in
Snow Depth Not available.
UV 0 out of 12
Pollen 9.00 out of 12
Air Quality Not available.
Flu Activity Not available.
SPECI KGLR 300712Z AUTO 00000KT 6SM BR FEW004 12/12 A3006 RMK AO2 T01220117
Nowcast | as of 3:00 am EDT on August 30, 2015

At 4 am...partly cloudy. Areas of fog. Temperature 57. Light winds. At 6 am...partly cloudy. Areas of fog. Temperature 55. Light winds. At 8 am...partly cloudy. Areas of fog. Temperature 58. Light winds. At 10 am...partly cloudy. Temperature 62. Light winds.

×

10-Day Weather Forecast

×

Almanac

Astronomy

Aug. 30, 2015 Rise Set
Actual Time
Civil Twilight
Nautical Twilight
Astronomical Twilight
Moon
Length of Visible Light
Length of Day
Tomorrow will be .
, % of the Moon is Illuminated

Today's Extremes

State Highs State Lows

Community

WunderPhotos

Upload Photos

1,850,904 photos uploaded!

WunderBlogs® & News

Nearby

Air Quality

  Air Quality AQ Index Pollutant
Not available.

Snow Depth

Station Depth Elevation

Earthquake Activity

City Distance Mag. Time & Date
Minimum magnitude displayed is 2.5.

Coastal Water Temperatures

Place Temperature

Stations

Nearby Weather Stations

Station Location Temp. Windchill Dew Point Humidity Wind Precip. Elev Updated Type